createdAt,value
2023-01-17T00:00:23.967Z,8.90
2023-01-17T00:02:54.828Z,9.40
2023-01-17T00:05:43.164Z,10.60
2023-01-17T00:08:32.633Z,9.60
2023-01-17T00:11:03.486Z,8.40
2023-01-17T00:13:34.171Z,9.40
2023-01-17T00:16:04.951Z,9.00
2023-01-17T00:18:35.734Z,8.90
2023-01-17T00:21:24.958Z,9.40
2023-01-17T00:24:15.532Z,9.40
2023-01-17T00:27:00.204Z,8.90
2023-01-17T00:29:29.762Z,11.00
2023-01-17T00:31:59.638Z,9.40
2023-01-17T00:34:29.276Z,6.40
2023-01-17T00:36:58.952Z,7.40
2023-01-17T00:39:28.559Z,8.80
2023-01-17T00:41:58.724Z,8.90
2023-01-17T00:44:46.862Z,11.80
2023-01-17T00:47:35.379Z,12.40
2023-01-17T00:50:24.646Z,8.60
2023-01-17T00:53:12.726Z,10.60
2023-01-17T00:56:01.093Z,12.10
2023-01-17T00:58:49.128Z,9.60
2023-01-17T01:01:37.353Z,15.80
2023-01-17T01:04:26.085Z,12.40
2023-01-17T01:07:14.347Z,12.50
2023-01-17T01:10:02.860Z,15.50
2023-01-17T01:12:50.820Z,15.60
2023-01-17T01:15:39.272Z,11.80
2023-01-17T01:18:30.855Z,17.60
2023-01-17T01:21:24.134Z,16.00
2023-01-17T01:24:12.847Z,18.80
2023-01-17T01:27:01.698Z,14.50
2023-01-17T01:29:49.936Z,19.60
2023-01-17T01:32:38.354Z,12.20
2023-01-17T01:35:10.483Z,16.50
2023-01-17T01:37:41.131Z,14.60
2023-01-17T01:40:13.907Z,16.90
2023-01-17T01:42:53.817Z,18.80
2023-01-17T01:45:27.560Z,17.30
2023-01-17T01:48:03.685Z,17.30
2023-01-17T01:50:37.743Z,16.80
2023-01-17T01:53:09.363Z,18.80
2023-01-17T01:55:45.529Z,14.80
2023-01-17T01:58:21.889Z,19.40
2023-01-17T02:00:53.121Z,15.80
2023-01-17T02:03:29.503Z,15.20
2023-01-17T02:06:05.542Z,19.10
2023-01-17T02:08:37.578Z,16.30
2023-01-17T02:11:08.436Z,14.10
2023-01-17T02:13:39.625Z,15.10
2023-01-17T02:16:27.953Z,17.10
2023-01-17T02:19:11.098Z,15.40
2023-01-17T02:21:54.395Z,18.70
2023-01-17T02:24:57.839Z,15.00
2023-01-17T02:27:36.819Z,15.80
2023-01-17T02:30:27.346Z,13.70
2023-01-17T02:33:07.404Z,17.50
2023-01-17T02:35:48.387Z,16.00
2023-01-17T02:38:35.027Z,12.10
2023-01-17T02:41:08.590Z,16.00
2023-01-17T02:43:40.342Z,14.10
2023-01-17T02:46:11.046Z,12.10
2023-01-17T02:48:42.418Z,13.20
2023-01-17T02:51:37.321Z,12.40
2023-01-17T02:54:25.273Z,11.40
2023-01-17T02:57:07.737Z,14.70
2023-01-17T02:59:47.209Z,8.60
2023-01-17T03:02:29.847Z,14.00
2023-01-17T03:05:06.051Z,14.30
2023-01-17T03:07:37.965Z,13.80
2023-01-17T03:10:12.834Z,13.80
2023-01-17T03:12:44.149Z,12.60
2023-01-17T03:15:17.586Z,10.80
2023-01-17T03:17:51.860Z,14.10
2023-01-17T03:20:23.831Z,17.90
2023-01-17T03:22:54.783Z,16.40
2023-01-17T03:25:25.611Z,21.20
2023-01-17T03:27:56.370Z,24.50
2023-01-17T03:30:27.308Z,24.60
2023-01-17T03:32:58.507Z,24.70
2023-01-17T03:35:29.433Z,18.20
2023-01-17T03:38:00.202Z,23.10
2023-01-17T03:40:30.935Z,24.30
2023-01-17T03:43:01.696Z,32.60
2023-01-17T03:45:32.585Z,22.40
2023-01-17T03:48:03.558Z,25.60
2023-01-17T03:50:34.303Z,29.70
2023-01-17T03:53:05.080Z,22.40
2023-01-17T03:55:35.871Z,24.60
2023-01-17T03:58:06.695Z,23.30
2023-01-17T04:00:38.052Z,19.00
2023-01-17T04:03:09.244Z,22.00
2023-01-17T04:05:39.915Z,23.50
2023-01-17T04:08:10.684Z,26.50
2023-01-17T04:10:41.417Z,19.20
2023-01-17T04:13:13.696Z,17.10
2023-01-17T04:15:46.095Z,14.80
2023-01-17T04:18:17.704Z,18.20
2023-01-17T04:20:48.438Z,17.70
2023-01-17T04:23:19.565Z,12.40
2023-01-17T04:25:50.234Z,13.60
2023-01-17T04:28:20.958Z,13.00
2023-01-17T04:30:51.780Z,16.30
2023-01-17T04:33:22.455Z,12.20
2023-01-17T04:35:55.017Z,13.20
2023-01-17T04:38:26.458Z,16.10
2023-01-17T04:40:57.141Z,16.30
2023-01-17T04:43:27.913Z,19.80
2023-01-17T04:45:59.901Z,15.30
2023-01-17T04:48:31.571Z,15.20
2023-01-17T04:51:06.230Z,14.00
2023-01-17T04:53:37.421Z,19.90
2023-01-17T04:56:09.369Z,14.30
2023-01-17T04:58:40.193Z,17.50
2023-01-17T05:01:11.561Z,16.50
2023-01-17T05:03:42.409Z,11.50
2023-01-17T05:06:13.659Z,15.40
2023-01-17T05:08:44.675Z,15.40
2023-01-17T05:11:15.701Z,13.70
2023-01-17T05:13:48.609Z,13.30
2023-01-17T05:16:21.730Z,14.40
2023-01-17T05:18:55.324Z,34.30
2023-01-17T05:21:26.375Z,15.40
2023-01-17T05:23:57.131Z,18.30
2023-01-17T05:26:28.008Z,16.10
2023-01-17T05:28:58.789Z,10.60
2023-01-17T05:31:29.479Z,14.90
2023-01-17T05:34:00.150Z,14.90
2023-01-17T05:36:30.984Z,14.40
2023-01-17T05:39:01.864Z,16.70
2023-01-17T05:41:32.660Z,12.60
2023-01-17T05:44:03.323Z,17.40
2023-01-17T05:46:34.271Z,16.10
2023-01-17T05:49:05.579Z,13.90
2023-01-17T05:51:37.987Z,13.90
2023-01-17T05:54:09.004Z,14.40
2023-01-17T05:56:40.049Z,16.50
2023-01-17T05:59:12.622Z,15.20
2023-01-17T06:01:44.889Z,12.30
2023-01-17T06:04:15.585Z,15.00
2023-01-17T06:06:46.463Z,12.90
2023-01-17T06:09:17.298Z,15.80
2023-01-17T06:11:48.016Z,14.70
2023-01-17T06:14:18.839Z,14.70
2023-01-17T06:16:49.628Z,14.40
2023-01-17T06:19:20.367Z,19.20
2023-01-17T06:21:51.186Z,18.00
2023-01-17T06:24:21.999Z,12.80
2023-01-17T06:26:52.791Z,14.40
2023-01-17T06:29:23.662Z,20.00
2023-01-17T06:31:54.667Z,12.30
2023-01-17T06:34:25.992Z,11.70
2023-01-17T06:36:56.727Z,16.70
2023-01-17T06:39:27.522Z,12.50
2023-01-17T06:41:58.606Z,14.70
2023-01-17T06:44:29.666Z,11.90
2023-01-17T06:47:00.398Z,17.20
2023-01-17T06:49:31.131Z,14.10
2023-01-17T06:52:01.869Z,14.90
2023-01-17T06:54:32.616Z,12.80
2023-01-17T06:57:03.337Z,15.60
2023-01-17T06:59:34.292Z,19.10
2023-01-17T07:02:04.981Z,15.90
2023-01-17T07:04:37.175Z,12.30
2023-01-17T07:07:07.922Z,16.00
2023-01-17T07:09:38.647Z,11.20
2023-01-17T07:12:09.910Z,13.20
2023-01-17T07:14:40.627Z,13.90
2023-01-17T07:17:11.471Z,12.50
2023-01-17T07:19:43.225Z,12.20
2023-01-17T07:22:14.059Z,13.40
2023-01-17T07:24:44.913Z,11.10
2023-01-17T07:27:15.675Z,12.40
2023-01-17T07:29:46.585Z,11.70
2023-01-17T07:32:17.427Z,12.10
2023-01-17T07:34:48.358Z,13.00
2023-01-17T07:37:20.028Z,13.90
2023-01-17T07:39:50.973Z,14.00
2023-01-17T07:42:23.927Z,11.20
2023-01-17T07:44:54.962Z,12.00
2023-01-17T07:47:26.039Z,10.10
2023-01-17T07:49:56.860Z,11.10
2023-01-17T07:52:27.712Z,12.00
2023-01-17T07:54:58.546Z,11.40
2023-01-17T07:57:29.276Z,9.80
2023-01-17T08:00:00.052Z,10.10
2023-01-17T08:02:31.066Z,11.30
2023-01-17T08:05:01.785Z,14.90
2023-01-17T08:07:32.609Z,10.30
2023-01-17T08:10:03.380Z,10.40
2023-01-17T08:12:35.644Z,11.80
2023-01-17T08:15:07.747Z,9.60
2023-01-17T08:17:38.533Z,12.80
2023-01-17T08:20:10.529Z,11.50
2023-01-17T08:22:41.452Z,9.90
2023-01-17T08:25:13.638Z,9.00
2023-01-17T08:27:44.581Z,12.50
2023-01-17T08:30:16.619Z,10.20
2023-01-17T08:32:47.538Z,8.60
2023-01-17T08:35:20.195Z,11.10
2023-01-17T08:37:55.074Z,11.00
2023-01-17T08:40:26.072Z,10.90
2023-01-17T08:43:01.927Z,12.40
2023-01-17T08:45:32.687Z,15.50
2023-01-17T08:48:03.423Z,11.80
2023-01-17T08:50:34.174Z,11.70
2023-01-17T08:53:05.055Z,11.30
2023-01-17T08:55:39.637Z,12.60
2023-01-17T08:58:11.440Z,13.10
2023-01-17T09:00:42.281Z,11.50
2023-01-17T09:03:14.525Z,9.70
2023-01-17T09:05:45.461Z,10.10
2023-01-17T09:08:16.243Z,13.60
2023-01-17T09:10:46.988Z,10.30
2023-01-17T09:13:17.622Z,12.20
2023-01-17T09:15:48.853Z,10.50
2023-01-17T09:18:19.623Z,10.50
2023-01-17T09:20:54.918Z,10.00
2023-01-17T09:23:27.305Z,11.90
2023-01-17T09:25:59.821Z,13.60
2023-01-17T09:28:31.319Z,13.10
2023-01-17T09:31:07.102Z,11.80
2023-01-17T09:33:38.296Z,11.60
2023-01-17T09:36:09.989Z,13.10
2023-01-17T09:38:41.193Z,13.70
2023-01-17T09:41:28.560Z,9.40
2023-01-17T09:44:05.530Z,10.10
2023-01-17T09:46:42.152Z,9.30
2023-01-17T09:49:24.283Z,11.40
2023-01-17T09:51:56.244Z,9.70
2023-01-17T09:54:35.115Z,10.70
2023-01-17T09:57:19.070Z,11.40
2023-01-17T10:00:03.300Z,14.40
2023-01-17T10:02:57.740Z,11.80
2023-01-17T10:05:51.534Z,9.80
2023-01-17T10:08:34.058Z,12.10
2023-01-17T10:11:25.870Z,12.20
2023-01-17T10:14:07.467Z,8.10
2023-01-17T10:16:49.210Z,11.70
2023-01-17T10:19:32.335Z,13.50
2023-01-17T10:22:31.279Z,10.90
2023-01-17T10:25:36.557Z,19.80
2023-01-17T10:28:14.771Z,14.10
2023-01-17T10:30:50.236Z,16.10
2023-01-17T10:33:27.420Z,13.60
2023-01-17T10:36:03.935Z,14.30
2023-01-17T10:38:37.876Z,17.20
2023-01-17T10:41:15.958Z,11.90
2023-01-17T10:43:54.371Z,11.60
2023-01-17T10:46:31.584Z,14.30
2023-01-17T10:49:03.766Z,12.90
2023-01-17T10:52:03.859Z,11.80
2023-01-17T10:54:51.588Z,12.20
2023-01-17T10:57:24.497Z,13.10
2023-01-17T10:59:58.952Z,12.70
2023-01-17T11:02:34.210Z,8.00
2023-01-17T11:05:19.443Z,14.80
2023-01-17T11:08:02.475Z,14.30
2023-01-17T11:10:43.133Z,16.90
2023-01-17T11:13:33.255Z,12.70
2023-01-17T11:16:08.624Z,9.90
2023-01-17T11:18:41.020Z,13.50
2023-01-17T11:21:16.761Z,16.90
2023-01-17T11:23:50.905Z,10.30
2023-01-17T11:26:27.723Z,12.50
2023-01-17T11:29:17.209Z,15.60
2023-01-17T11:31:47.978Z,11.40
2023-01-17T11:34:24.261Z,16.60
2023-01-17T11:37:18.111Z,13.40
2023-01-17T11:39:49.431Z,11.30
2023-01-17T11:42:36.755Z,13.70
2023-01-17T11:45:26.852Z,14.40
2023-01-17T11:48:13.970Z,16.10
2023-01-17T11:50:48.446Z,11.10
2023-01-17T11:53:24.795Z,13.10
2023-01-17T11:56:10.163Z,15.80
2023-01-17T11:58:43.667Z,13.50
2023-01-17T12:01:32.323Z,14.30
2023-01-17T12:04:25.384Z,13.00
2023-01-17T12:07:09.329Z,15.00
2023-01-17T12:09:46.572Z,22.40
2023-01-17T12:12:43.797Z,16.40
2023-01-17T12:15:27.037Z,16.50
2023-01-17T12:18:11.809Z,13.60
2023-01-17T12:20:54.620Z,14.30
2023-01-17T12:23:44.709Z,15.30
2023-01-17T12:26:29.811Z,11.30
2023-01-17T12:29:24.344Z,14.00
2023-01-17T12:32:09.830Z,17.70
2023-01-17T12:34:50.961Z,18.90
2023-01-17T12:37:30.651Z,15.60
2023-01-17T12:40:11.321Z,22.60
2023-01-17T12:42:49.969Z,14.30
2023-01-17T12:45:28.452Z,15.30
2023-01-17T12:48:03.701Z,16.30
2023-01-17T12:53:20.672Z,16.10
2023-01-17T12:55:58.225Z,18.20
2023-01-17T12:58:32.765Z,16.50
2023-01-17T13:01:07.940Z,18.10
2023-01-17T13:06:25.033Z,14.20
2023-01-17T13:08:59.344Z,18.90
2023-01-17T13:11:35.621Z,19.60
2023-01-17T13:14:10.034Z,14.20
2023-01-17T13:16:45.405Z,15.20
2023-01-17T13:21:50.741Z,17.10
2023-01-17T13:24:59.764Z,21.70
2023-01-17T13:28:05.208Z,16.70
2023-01-17T13:30:48.458Z,18.90
2023-01-17T13:33:36.631Z,21.80
2023-01-17T13:36:29.142Z,17.00
2023-01-17T13:39:15.224Z,16.00
2023-01-17T13:41:50.006Z,15.70
2023-01-17T13:44:21.214Z,15.20
2023-01-17T13:46:59.052Z,17.20
2023-01-17T13:49:42.473Z,24.10
2023-01-17T13:52:27.118Z,21.70
2023-01-17T13:54:56.744Z,19.40
2023-01-17T13:57:41.483Z,17.80
2023-01-17T14:00:51.285Z,20.10
2023-01-17T14:03:59.621Z,24.60
2023-01-17T14:06:45.934Z,21.60
2023-01-17T14:09:22.483Z,17.50
2023-01-17T14:11:54.990Z,19.10
2023-01-17T14:14:51.955Z,18.60
2023-01-17T14:17:51.760Z,16.70
2023-01-17T14:20:56.869Z,21.50
2023-01-17T14:24:00.316Z,18.30
2023-01-17T14:26:43.799Z,18.10
2023-01-17T14:29:45.826Z,27.80
2023-01-17T14:32:15.864Z,29.10
2023-01-17T14:34:45.448Z,20.40
2023-01-17T14:37:33.086Z,19.10
2023-01-17T14:40:01.989Z,19.60
2023-01-17T14:42:31.123Z,24.80
2023-01-17T14:45:03.460Z,24.30
2023-01-17T14:47:34.816Z,17.70
2023-01-17T14:50:20.413Z,20.90
2023-01-17T14:55:17.855Z,19.60
2023-01-17T14:57:55.486Z,23.30
2023-01-17T15:00:28.452Z,20.10
2023-01-17T15:02:59.019Z,19.50
2023-01-17T15:05:29.498Z,18.80
2023-01-17T15:07:59.113Z,20.50
2023-01-17T15:10:31.395Z,22.50
2023-01-17T15:13:09.908Z,22.80
2023-01-17T15:15:40.238Z,19.30
2023-01-17T15:18:26.014Z,20.20
2023-01-17T15:20:58.845Z,18.10
2023-01-17T15:23:31.691Z,18.40
2023-01-17T15:26:02.826Z,24.40
2023-01-17T15:28:32.394Z,29.30
2023-01-17T15:31:21.439Z,22.00
2023-01-17T15:33:55.311Z,20.30
2023-01-17T15:36:29.664Z,28.40
2023-01-17T15:39:00.082Z,19.70
2023-01-17T15:41:32.084Z,21.20
2023-01-17T15:44:00.992Z,28.40
2023-01-17T15:46:32.215Z,19.40
2023-01-17T15:49:14.300Z,21.40
2023-01-17T15:51:49.707Z,21.20
2023-01-17T15:54:46.784Z,20.50
2023-01-17T15:57:20.259Z,22.00
2023-01-17T15:59:53.727Z,25.80
2023-01-17T16:02:28.485Z,28.40
2023-01-17T16:04:57.105Z,26.40
2023-01-17T16:07:31.721Z,24.00
2023-01-17T16:10:07.156Z,22.90
2023-01-17T16:12:35.089Z,26.40
2023-01-17T16:15:12.529Z,21.20
2023-01-17T16:17:44.887Z,21.80
2023-01-17T16:20:20.351Z,22.40
2023-01-17T16:22:49.334Z,20.40
2023-01-17T16:25:20.051Z,28.60
2023-01-17T16:27:48.685Z,26.30
2023-01-17T16:30:19.399Z,36.60
2023-01-17T16:32:48.955Z,28.40
2023-01-17T16:35:20.226Z,37.90
2023-01-17T16:37:50.553Z,33.10
2023-01-17T16:40:20.421Z,28.10
2023-01-17T16:42:48.864Z,28.70
2023-01-17T16:45:18.064Z,24.30
2023-01-17T16:47:47.877Z,29.40
2023-01-17T16:50:18.211Z,25.60
2023-01-17T16:52:46.161Z,29.40
2023-01-17T16:55:16.621Z,31.60
2023-01-17T16:57:45.369Z,32.80
2023-01-17T17:00:15.307Z,25.90
2023-01-17T17:02:44.126Z,28.20
2023-01-17T17:05:12.138Z,29.80
2023-01-17T17:07:43.443Z,29.90
2023-01-17T17:10:14.043Z,23.50
2023-01-17T17:12:45.290Z,24.20
2023-01-17T17:15:13.775Z,40.40
2023-01-17T17:17:43.595Z,29.60
2023-01-17T17:20:14.588Z,38.10
2023-01-17T17:22:44.652Z,30.30
2023-01-17T17:25:12.875Z,33.10
2023-01-17T17:27:41.097Z,31.50
2023-01-17T17:30:12.105Z,29.40
2023-01-17T17:32:40.428Z,29.40
2023-01-17T17:35:09.571Z,26.40
2023-01-17T17:37:37.697Z,29.40
2023-01-17T17:40:07.933Z,27.70
2023-01-17T17:42:35.996Z,31.70
2023-01-17T17:45:05.373Z,31.50
2023-01-17T17:47:33.483Z,33.40
2023-01-17T17:50:01.555Z,38.20
2023-01-17T17:52:29.573Z,30.10
2023-01-17T17:54:58.614Z,36.40
2023-01-17T17:57:26.597Z,35.30
2023-01-17T17:59:56.125Z,31.10
2023-01-17T18:02:24.995Z,31.00
2023-01-17T18:04:53.304Z,29.90
2023-01-17T18:07:21.311Z,32.20
2023-01-17T18:09:49.284Z,27.80
2023-01-17T18:12:17.384Z,31.80
2023-01-17T18:14:45.325Z,33.70
2023-01-17T18:17:14.689Z,33.10
2023-01-17T18:19:45.475Z,26.00
2023-01-17T18:22:14.907Z,35.80
2023-01-17T18:24:43.175Z,32.00
2023-01-17T18:27:11.274Z,32.70
2023-01-17T18:29:39.226Z,30.30
2023-01-17T18:32:07.237Z,33.30
2023-01-17T18:34:40.746Z,25.80
2023-01-17T18:37:09.148Z,24.80
2023-01-17T18:39:37.150Z,27.90
2023-01-17T18:42:05.531Z,28.00
2023-01-17T18:44:33.481Z,31.10
2023-01-17T18:47:04.095Z,30.20
2023-01-17T18:49:32.966Z,33.10
2023-01-17T18:52:01.745Z,28.70
2023-01-17T18:54:31.259Z,28.50
2023-01-17T18:56:59.157Z,33.80
2023-01-17T18:59:27.129Z,30.00
2023-01-17T19:01:55.285Z,27.90
2023-01-17T19:04:23.302Z,29.10
2023-01-17T19:06:53.327Z,28.90
2023-01-17T19:09:21.756Z,30.50
2023-01-17T19:11:50.719Z,32.80
2023-01-17T19:14:18.774Z,32.00
2023-01-17T19:16:46.779Z,30.80
2023-01-17T19:19:16.294Z,35.30
2023-01-17T19:21:44.484Z,27.70
2023-01-17T19:24:13.639Z,29.80
2023-01-17T19:26:42.260Z,25.70
2023-01-17T19:29:11.483Z,29.20
2023-01-17T19:31:41.911Z,28.80
2023-01-17T19:34:10.605Z,31.90
2023-01-17T19:36:38.901Z,38.70
2023-01-17T19:39:09.228Z,30.00
2023-01-17T19:41:41.143Z,36.60
2023-01-17T19:44:11.203Z,29.40
2023-01-17T19:46:39.880Z,28.40
2023-01-17T19:49:08.927Z,31.90
2023-01-17T19:51:38.737Z,28.50
2023-01-17T19:54:07.637Z,33.50
2023-01-17T19:56:36.170Z,30.90
2023-01-17T19:59:04.179Z,33.10
2023-01-17T20:01:33.691Z,30.10
2023-01-17T20:04:03.034Z,29.70
2023-01-17T20:06:33.325Z,34.80
2023-01-17T20:09:01.641Z,34.90
2023-01-17T20:11:29.641Z,39.00
2023-01-17T20:13:59.388Z,40.90
2023-01-17T20:16:29.613Z,39.60
2023-01-17T20:18:59.576Z,33.00
2023-01-17T20:21:29.273Z,36.20
2023-01-17T20:23:59.563Z,43.50
2023-01-17T20:26:34.015Z,47.90
2023-01-17T20:29:03.593Z,57.20
2023-01-17T20:31:32.107Z,38.30
2023-01-17T20:34:00.134Z,42.60
2023-01-17T20:36:29.345Z,47.20
2023-01-17T20:38:57.334Z,39.40
2023-01-17T20:41:29.162Z,41.40
2023-01-17T20:43:59.142Z,51.40
2023-01-17T20:46:28.955Z,50.50
2023-01-17T20:48:58.034Z,46.90
2023-01-17T20:51:28.201Z,52.50
2023-01-17T20:53:59.055Z,46.70
2023-01-17T20:56:29.675Z,40.70
2023-01-17T20:58:58.054Z,42.90
2023-01-17T21:01:26.369Z,49.90
2023-01-17T21:03:54.813Z,47.60
2023-01-17T21:06:24.158Z,48.20
2023-01-17T21:08:52.295Z,44.10
2023-01-17T21:11:22.479Z,46.40
2023-01-17T21:13:51.309Z,43.20
2023-01-17T21:16:22.231Z,43.60
2023-01-17T21:18:51.432Z,44.40
2023-01-17T21:21:21.645Z,49.70
2023-01-17T21:23:51.081Z,46.70
2023-01-17T21:26:21.516Z,47.50
2023-01-17T21:28:50.339Z,42.60
2023-01-17T21:31:22.709Z,45.20
2023-01-17T21:33:52.787Z,55.40
2023-01-17T21:36:22.909Z,45.60
2023-01-17T21:38:52.578Z,47.70
2023-01-17T21:41:23.111Z,52.60
2023-01-17T21:43:55.722Z,48.60
2023-01-17T21:46:23.932Z,49.70
2023-01-17T21:48:52.218Z,49.30
2023-01-17T21:51:21.172Z,45.10
2023-01-17T21:53:49.285Z,49.30
2023-01-17T21:56:35.348Z,46.30
2023-01-17T21:59:03.515Z,44.70
2023-01-17T22:01:33.437Z,51.80
2023-01-17T22:04:03.147Z,47.80
2023-01-17T22:06:34.203Z,53.10
2023-01-17T22:09:03.550Z,49.40
2023-01-17T22:11:32.111Z,46.90
2023-01-17T22:14:02.077Z,52.80
2023-01-17T22:16:30.008Z,53.60
2023-01-17T22:19:00.112Z,50.40
2023-01-17T22:21:29.065Z,48.60
2023-01-17T22:23:58.660Z,50.90
2023-01-17T22:26:28.209Z,48.20
2023-01-17T22:28:59.537Z,52.20
2023-01-17T22:31:28.377Z,55.90
2023-01-17T22:33:58.352Z,52.70
2023-01-17T22:36:27.109Z,46.10
2023-01-17T22:38:55.361Z,53.30
2023-01-17T22:41:27.251Z,52.40
2023-01-17T22:43:58.527Z,59.90
2023-01-17T22:46:30.553Z,48.50
2023-01-17T22:48:59.705Z,42.70
2023-01-17T22:51:28.822Z,55.80
2023-01-17T22:53:58.691Z,53.60
2023-01-17T22:56:28.917Z,45.90
2023-01-17T22:58:57.071Z,45.80
2023-01-17T23:01:27.200Z,48.00
2023-01-17T23:03:57.602Z,41.50
2023-01-17T23:06:27.675Z,44.80
2023-01-17T23:08:57.632Z,50.80
2023-01-17T23:11:40.360Z,49.50
2023-01-17T23:14:10.906Z,41.20
2023-01-17T23:16:59.607Z,52.30
2023-01-17T23:19:30.355Z,43.80
2023-01-17T23:22:18.871Z,51.90
2023-01-17T23:24:50.073Z,50.70
2023-01-17T23:27:39.047Z,54.30
2023-01-17T23:30:10.516Z,53.50
2023-01-17T23:32:39.025Z,56.40
2023-01-17T23:35:08.082Z,52.90
2023-01-17T23:37:54.384Z,57.70
2023-01-17T23:40:22.369Z,60.60
2023-01-17T23:43:09.028Z,49.70
2023-01-17T23:45:38.076Z,50.70
2023-01-17T23:48:09.774Z,55.60
2023-01-17T23:50:38.947Z,52.70
2023-01-17T23:53:07.806Z,53.50
2023-01-17T23:55:37.780Z,54.40
2023-01-17T23:58:07.443Z,62.80
